Time;durP1;ratioP1;P1;durP2;ratioP2;P2;SDS_P1;SDS_P2;PMS_P1;PMS_P2;Temp;Humidity;BMP_temperature;BMP_pressure;BME280_temperature;BME280_humidity;BME280_pressure;Samples;Min_cycle;Max_cycle;Signal;HPM_P1;HPM_P2
2022/11/19 00:02:49;;;;;;;8.57;5.23;;;;;;;-0.74;88.32;100870.22;20868884;28;20060;-61
2022/11/19 00:13:15;;;;;;;10.68;5.70;;;;;;;-0.79;89.53;100877.13;20853245;28;20672;-62
2022/11/19 00:23:37;;;;;;;9.05;5.50;;;;;;;-0.85;89.10;100879.78;20851003;28;20052;-61
2022/11/19 00:33:59;;;;;;;10.07;5.38;;;;;;;-0.90;88.17;100883.28;20848547;28;20061;-59
2022/11/19 00:44:20;;;;;;;9.13;4.90;;;;;;;-0.97;88.16;100891.97;20850560;28;20084;-59
2022/11/19 00:54:42;;;;;;;11.80;5.57;;;;;;;-1.06;88.74;100906.63;20857631;28;20171;-61
2022/11/19 01:05:04;;;;;;;11.40;5.50;;;;;;;-1.18;89.10;100906.81;20851120;28;20053;-59
2022/11/19 01:15:25;;;;;;;;;;;;;;;-1.25;89.33;100926.53;20838052;28;20554;-59
2022/11/19 01:25:47;;;;;;;9.90;5.67;;;;;;;-1.29;88.67;100924.00;20869056;28;20598;-60
2022/11/19 01:36:15;;;;;;;8.73;4.60;;;;;;;-1.39;88.75;100922.47;20856822;28;20045;-59
2022/11/19 01:46:37;;;;;;;8.70;4.65;;;;;;;-1.37;90.27;100930.97;20839534;28;20323;-59
2022/11/19 01:57:03;;;;;;;8.82;4.93;;;;;;;-1.36;88.49;100937.78;20849018;28;20068;-59
2022/11/19 02:07:28;;;;;;;8.43;5.22;;;;;;;-1.45;87.65;100943.00;20853643;22;20419;-66
2022/11/19 02:18:13;;;;;;;7.25;4.38;;;;;;;-1.42;87.79;100948.06;20883661;28;20045;-67
2022/11/19 02:28:39;;;;;;;8.07;4.60;;;;;;;-1.52;86.75;100962.69;20968842;28;20063;-67
2022/11/19 02:39:24;;;;;;;7.15;4.75;;;;;;;-1.55;86.40;100967.00;20984952;28;20048;-67
2022/11/19 02:49:48;;;;;;;7.47;4.97;;;;;;;-1.60;86.58;100969.63;20973146;28;20032;-66
2022/11/19 03:10:57;;;;;;;;;;;;;;;-1.66;87.57;100985.03;20957602;28;20051;-66
2022/11/19 03:21:28;;;;;;;9.38;5.45;;;;;;;-1.69;87.83;100984.22;20979707;28;20388;-67
2022/11/19 03:31:55;;;;;;;9.82;5.13;;;;;;;-1.77;86.67;100991.16;20946961;28;20045;-67
2022/11/19 03:42:19;;;;;;;10.95;5.07;;;;;;;-1.82;88.43;100998.00;20943848;28;20068;-67
2022/11/19 03:52:41;;;;;;;12.95;5.75;;;;;;;-1.83;88.14;101007.41;20957968;28;20049;-74
2022/11/19 04:03:03;;;;;;;9.80;5.45;;;;;;;-1.88;88.14;101015.94;20938943;28;20072;-70
2022/11/19 04:13:25;;;;;;;9.05;6.03;;;;;;;-1.98;87.25;101037.34;20962892;28;20060;-71
2022/11/19 04:23:46;;;;;;;8.98;5.68;;;;;;;-1.95;86.99;101037.31;20950288;28;20048;-70
2022/11/19 04:34:08;;;;;;;8.77;5.13;;;;;;;-2.01;85.71;101046.75;20948917;28;20111;-70
2022/11/19 04:44:29;;;;;;;11.63;5.70;;;;;;;-2.01;86.62;101049.31;20983395;28;20343;-69
2022/11/19 04:54:51;;;;;;;8.48;5.30;;;;;;;-2.05;86.60;101045.97;20960525;28;20044;-69
2022/11/19 05:05:12;;;;;;;9.57;5.60;;;;;;;-2.05;87.24;101051.06;20971501;28;20044;-69
2022/11/19 05:15:34;;;;;;;8.88;5.63;;;;;;;-2.05;86.29;101051.06;20943460;28;20271;-69
2022/11/19 05:25:55;;;;;;;11.13;6.53;;;;;;;-2.04;85.52;101057.88;20944798;28;20130;-69
2022/11/19 05:36:17;;;;;;;10.45;5.85;;;;;;;-2.03;86.30;101069.75;20956570;28;20110;-69
2022/11/19 05:46:38;;;;;;;8.73;5.37;;;;;;;-2.08;87.32;101070.66;20955286;28;20060;-69
2022/11/19 05:57:00;;;;;;;8.98;5.55;;;;;;;-2.13;86.46;101062.22;20956586;28;20491;-68
2022/11/19 06:07:21;;;;;;;10.98;5.72;;;;;;;-2.30;85.78;101070.00;20953022;28;20057;-68
2022/11/19 06:17:43;;;;;;;10.63;6.05;;;;;;;-2.36;87.09;101076.88;20955926;28;20086;-69
2022/11/19 06:28:04;;;;;;;7.87;5.40;;;;;;;-2.40;86.50;101088.81;20967142;28;20086;-68
2022/11/19 06:38:26;;;;;;;10.43;5.80;;;;;;;-2.41;87.22;101092.22;20939751;28;20283;-68
2022/11/19 06:48:47;;;;;;;9.80;6.00;;;;;;;-2.50;85.74;101112.72;20955216;28;20561;-68
2022/11/19 06:59:09;;;;;;;9.93;5.70;;;;;;;-2.51;87.88;101111.03;20968248;28;20294;-67
2022/11/19 07:09:30;;;;;;;8.73;5.83;;;;;;;-2.57;86.95;101107.69;20938684;28;20615;-67
2022/11/19 07:19:52;;;;;;;;;;;;;;;-2.57;87.98;101118.72;20936991;28;20072;-67
2022/11/19 07:30:14;;;;;;;11.63;6.63;;;;;;;-2.60;87.54;101120.47;20980427;28;20359;-67
2022/11/19 07:40:36;;;;;;;13.43;6.50;;;;;;;-2.56;87.64;101117.88;20966662;28;20036;-68
2022/11/19 07:50:57;;;;;;;12.68;6.68;;;;;;;-2.49;88.13;101139.94;20965486;28;20541;-67
2022/11/19 08:01:22;;;;;;;10.20;6.90;;;;;;;-2.43;88.11;101139.88;20965236;28;20096;-67
2022/11/19 08:11:44;;;;;;;8.32;5.63;;;;;;;-2.32;89.06;101143.19;20867806;22;20085;-60
2022/11/19 08:22:08;;;;;;;11.50;6.28;;;;;;;-2.23;89.29;101148.22;20791197;28;20081;-61
2022/11/19 08:32:30;;;;;;;9.95;5.63;;;;;;;-2.16;86.61;101138.81;20805596;28;20054;-59
2022/11/19 08:43:01;;;;;;;10.53;5.80;;;;;;;-2.10;87.44;101147.28;20768442;28;20053;-60
2022/11/19 08:53:22;;;;;;;14.35;6.20;;;;;;;-1.97;87.04;101153.97;20764792;28;20062;-59
2022/11/19 09:03:44;;;;;;;10.35;5.63;;;;;;;-1.82;88.05;101156.38;20806820;28;20041;-62
2022/11/19 09:14:05;;;;;;;8.93;5.40;;;;;;;-1.81;84.91;101152.94;20773599;28;20394;-59
2022/11/19 09:24:27;;;;;;;9.80;6.30;;;;;;;-1.68;86.27;101157.06;20764660;28;20539;-60
2022/11/19 09:34:48;;;;;;;10.70;5.78;;;;;;;-1.55;86.73;101156.09;20751077;28;20038;-61
2022/11/19 09:45:54;;;;;;;7.63;4.83;;;;;;;-1.37;86.92;101155.88;20759857;28;20476;-61
2022/11/19 09:56:24;;;;;;;6.97;4.43;;;;;;;-1.22;85.26;101160.81;20740623;28;20296;-61
2022/11/19 10:07:18;;;;;;;7.30;4.40;;;;;;;-1.09;84.30;101152.97;20806069;28;20050;-61
2022/11/19 10:18:09;;;;;;;7.03;4.68;;;;;;;-0.97;85.25;101153.66;20755778;28;20146;-62
2022/11/19 10:28:38;;;;;;;8.02;4.40;;;;;;;-0.85;83.90;101148.38;20750082;28;20112;-61
2022/11/19 10:39:09;;;;;;;6.95;3.70;;;;;;;-0.72;81.99;101144.78;20781120;28;20041;-59
2022/11/19 10:49:36;;;;;;;6.27;3.97;;;;;;;-0.65;82.27;101136.16;20822718;28;20092;-60
2022/11/19 11:00:00;;;;;;;6.35;4.30;;;;;;;-0.55;83.01;101122.34;20784038;28;20046;-60
2022/11/19 11:10:44;;;;;;;5.97;3.92;;;;;;;-0.43;79.44;101101.69;20746821;28;20050;-61
2022/11/19 11:21:23;;;;;;;7.28;4.13;;;;;;;-0.27;81.39;101092.88;20769027;28;20050;-61
2022/11/19 11:31:46;;;;;;;12.70;4.13;;;;;;;-0.16;80.77;101085.91;20788243;28;20527;-62
2022/11/19 11:42:10;;;;;;;7.05;4.22;;;;;;;-0.07;80.44;101074.66;20813554;28;20110;-62
2022/11/19 11:52:52;;;;;;;11.65;3.97;;;;;;;-0.02;80.88;101071.13;20764812;28;20046;-62
2022/11/19 12:03:19;;;;;;;6.93;4.20;;;;;;;0.06;80.85;101082.06;20759146;28;20081;-61
2022/11/19 12:13:52;;;;;;;9.70;3.88;;;;;;;0.14;81.43;101069.97;20770707;28;20041;-63
2022/11/19 12:24:22;;;;;;;5.70;3.47;;;;;;;0.23;81.03;101074.91;20763490;28;20127;-63
2022/11/19 12:35:20;;;;;;;6.43;4.05;;;;;;;0.33;80.45;101071.28;20766860;28;20098;-62
2022/11/19 12:46:00;;;;;;;6.97;4.05;;;;;;;0.40;82.11;101053.19;20756963;28;20116;-62
2022/11/19 12:56:40;;;;;;;9.25;4.43;;;;;;;0.51;81.19;101055.56;20772750;28;20389;-62
2022/11/19 13:07:14;;;;;;;4.75;3.40;;;;;;;0.60;82.29;101056.22;20762825;28;20041;-62
2022/11/19 13:17:41;;;;;;;4.60;3.05;;;;;;;0.71;83.62;101040.59;20764795;28;20049;-61
2022/11/19 13:28:09;;;;;;;5.10;3.70;;;;;;;0.77;83.25;101037.88;20715602;28;20112;-61
2022/11/19 13:38:54;;;;;;;5.30;3.85;;;;;;;0.83;82.78;101022.38;20749861;28;20141;-63
2022/11/19 13:49:23;;;;;;;15.90;5.57;;;;;;;1.00;82.85;101027.09;20765942;28;20109;-63
2022/11/19 13:59:46;;;;;;;5.55;3.60;;;;;;;1.02;83.34;101029.63;20771015;28;20260;-61
2022/11/19 14:10:33;;;;;;;9.90;4.30;;;;;;;1.03;84.73;101011.59;20777151;28;20050;-61
2022/11/19 14:32:14;;;;;;;5.43;3.40;;;;;;;1.11;83.60;100998.59;20775778;28;20073;-60
2022/11/19 14:54:02;;;;;;;12.10;6.07;;;;;;;1.09;85.65;100978.13;20786201;28;20049;-62
2022/11/19 15:04:32;;;;;;;8.27;5.18;;;;;;;1.09;86.12;100969.59;20788240;28;20061;-62
2022/11/19 15:15:06;;;;;;;11.80;5.88;;;;;;;1.08;87.02;100953.34;20781229;28;20078;-62
2022/11/19 15:25:35;;;;;;;8.68;5.55;;;;;;;0.99;87.90;100966.41;20768574;28;20056;-62
2022/11/19 15:36:17;;;;;;;9.35;5.63;;;;;;;0.84;88.98;100962.50;20758905;28;20041;-62
2022/11/19 15:46:42;;;;;;;9.83;5.87;;;;;;;0.66;90.41;100952.66;20744585;28;20057;-62
2022/11/19 15:57:16;;;;;;;8.80;5.82;;;;;;;0.54;90.45;100948.63;20773551;28;20049;-61
2022/11/19 16:07:37;;;;;;;13.45;7.43;;;;;;;0.38;92.37;100946.44;20765855;28;20042;-62
2022/11/19 16:17:59;;;;;;;17.33;10.30;;;;;;;0.29;91.97;100950.06;20756630;28;20062;-62
2022/11/19 16:28:31;;;;;;;24.30;11.77;;;;;;;0.22;93.30;100940.78;20747817;28;20042;-62
2022/11/19 16:38:53;;;;;;;16.80;9.27;;;;;;;0.15;93.07;100935.81;20760624;28;20085;-62
2022/11/19 16:49:38;;;;;;;19.20;9.25;;;;;;;0.07;92.65;100919.78;20761071;28;20058;-62
2022/11/19 17:00:03;;;;;;;28.30;11.60;;;;;;;0.00;94.02;100919.06;20767610;28;20111;-62
2022/11/19 17:10:30;;;;;;;28.55;12.50;;;;;;;-0.07;95.22;100918.41;20761641;28;20050;-62
2022/11/19 17:21:27;;;;;;;27.65;13.68;;;;;;;-0.19;95.14;100916.91;20750481;28;20052;-62
2022/11/19 17:31:51;;;;;;;21.42;11.18;;;;;;;-0.20;94.34;100922.03;20730291;28;20045;-62
2022/11/19 17:52:53;;;;;;;29.35;13.20;;;;;;;-0.19;93.25;100947.66;20755577;28;20131;-59
2022/11/19 18:03:16;;;;;;;23.90;13.05;;;;;;;-0.28;93.55;100954.66;20752477;28;20140;-60
2022/11/19 18:13:40;;;;;;;28.75;13.35;;;;;;;-0.36;94.25;100954.81;20752336;28;20037;-60
2022/11/19 18:24:01;;;;;;;28.73;13.85;;;;;;;-0.43;94.43;100948.09;20754689;28;20049;-59
2022/11/19 18:34:23;;;;;;;37.93;17.97;;;;;;;-0.48;94.43;100957.59;20729005;28;20058;-60
2022/11/19 18:44:44;;;;;;;33.63;18.10;;;;;;;-0.46;93.94;100949.88;20752788;28;20062;-59
2022/11/19 18:55:09;;;;;;;39.03;19.27;;;;;;;-0.39;93.20;100957.41;20739503;28;20554;-58
2022/11/19 19:05:31;;;;;;;33.88;18.85;;;;;;;-0.31;94.64;100959.81;20730583;28;20100;-58
2022/11/19 19:15:59;;;;;;;25.40;14.13;;;;;;;-0.26;93.50;100950.34;20733109;28;20045;-59
2022/11/19 19:26:21;;;;;;;31.50;14.63;;;;;;;-0.28;94.43;100937.56;20781135;28;20103;-59
2022/11/19 19:36:43;;;;;;;23.55;12.73;;;;;;;-0.23;94.31;100932.38;20728164;28;20095;-59
2022/11/19 19:47:10;;;;;;;24.75;12.13;;;;;;;-0.17;94.60;100930.53;20775198;28;20108;-59
2022/11/19 19:57:32;;;;;;;20.08;10.98;;;;;;;-0.04;93.93;100921.72;20759955;28;20133;-59
2022/11/19 20:07:54;;;;;;;20.67;10.87;;;;;;;0.08;93.93;100903.53;20742072;28;20081;-59
2022/11/19 20:18:15;;;;;;;22.80;12.93;;;;;;;0.15;94.01;100902.50;20804111;23;20168;-69
2022/11/19 20:28:37;;;;;;;20.60;11.87;;;;;;;0.18;93.66;100889.66;20716053;28;20070;-68
2022/11/19 20:38:59;;;;;;;23.45;12.63;;;;;;;0.22;94.33;100888.72;20714260;28;20124;-68
2022/11/19 20:49:24;;;;;;;;;;;;;;;0.23;93.38;100887.84;20724642;28;20164;-68
2022/11/19 20:59:46;;;;;;;32.78;15.10;;;;;;;0.10;94.14;100888.97;20710520;28;19929;-68
2022/11/19 21:10:08;;;;;;;31.33;17.03;;;;;;;0.03;95.06;100877.16;20735104;28;20124;-69
2022/11/19 21:20:30;;;;;;;29.15;15.60;;;;;;;0.01;95.31;100878.91;20741075;28;20046;-69
2022/11/19 21:30:51;;;;;;;37.78;15.35;;;;;;;0.07;94.62;100894.16;20703453;28;20419;-69
2022/11/19 21:41:13;;;;;;;27.03;14.17;;;;;;;0.09;94.59;100879.59;20712859;28;20038;-70
2022/11/19 21:51:37;;;;;;;27.27;14.53;;;;;;;0.07;94.42;100871.09;20734745;28;20050;-70
2022/11/19 22:01:59;;;;;;;23.83;12.85;;;;;;;0.14;94.08;100865.81;20714957;28;20448;-70
2022/11/19 22:12:20;;;;;;;24.47;13.83;;;;;;;0.12;94.24;100867.56;20741820;28;20050;-69
2022/11/19 22:22:44;;;;;;;24.13;14.27;;;;;;;0.07;94.34;100846.31;20735427;28;20600;-69
2022/11/19 22:33:05;;;;;;;23.35;13.18;;;;;;;0.01;93.58;100841.34;20733220;28;20046;-69
2022/11/19 22:43:31;;;;;;;23.70;13.30;;;;;;;0.04;94.24;100851.53;20737426;28;20049;-69
2022/11/19 22:53:53;;;;;;;21.08;12.15;;;;;;;-0.10;94.43;100850.13;20756464;28;20041;-70
2022/11/19 23:04:15;;;;;;;20.35;12.15;;;;;;;-0.14;94.66;100830.56;20749932;28;20724;-69
2022/11/19 23:14:36;;;;;;;20.43;11.33;;;;;;;-0.04;94.18;100829.53;20761195;28;20397;-69
2022/11/19 23:24:58;;;;;;;23.67;11.37;;;;;;;0.06;94.88;100815.63;20747989;28;20105;-69
2022/11/19 23:35:19;;;;;;;22.47;10.90;;;;;;;0.07;94.49;100822.44;20769195;28;20860;-70
2022/11/19 23:45:41;;;;;;;18.03;10.53;;;;;;;0.03;95.16;100810.56;20746931;28;20081;-70
2022/11/19 23:56:03;;;;;;;21.50;10.20;;;;;;;-0.01;94.35;100814.09;20735958;28;20511;-70
